createdAt,value
2018-05-03T00:00:47.622Z,4.03
2018-05-03T00:03:15.126Z,3.05
2018-05-03T00:05:42.604Z,3.60
2018-05-03T00:08:10.829Z,3.95
2018-05-03T00:10:38.650Z,4.87
2018-05-03T00:13:06.110Z,4.07
2018-05-03T00:15:33.609Z,4.55
2018-05-03T00:18:01.415Z,4.43
2018-05-03T00:20:29.641Z,4.85
2018-05-03T00:22:57.117Z,4.90
2018-05-03T00:25:24.902Z,4.37
2018-05-03T00:27:52.366Z,4.10
2018-05-03T00:30:20.620Z,4.50
2018-05-03T00:32:48.102Z,4.45
2018-05-03T00:35:15.588Z,5.40
2018-05-03T00:37:43.052Z,4.95
2018-05-03T00:40:10.875Z,5.70
2018-05-03T00:42:39.123Z,5.60
2018-05-03T00:45:06.710Z,5.15
2018-05-03T00:47:34.582Z,5.37
2018-05-03T00:50:02.813Z,6.82
2018-05-03T00:52:30.285Z,5.32
2018-05-03T00:54:58.074Z,5.60
2018-05-03T00:57:26.326Z,5.80
2018-05-03T00:59:53.830Z,5.30
2018-05-03T01:02:21.631Z,5.50
2018-05-03T01:04:49.849Z,5.00
2018-05-03T01:07:17.318Z,4.60
2018-05-03T01:09:45.122Z,5.85
2018-05-03T01:12:12.625Z,5.15
2018-05-03T01:14:40.861Z,4.93
2018-05-03T01:17:08.774Z,6.03
2018-05-03T01:19:36.367Z,5.03
2018-05-03T01:22:03.836Z,5.20
2018-05-03T01:24:31.642Z,5.72
2018-05-03T01:26:59.119Z,5.65
2018-05-03T01:29:26.601Z,6.20
2018-05-03T01:31:54.419Z,5.90
2018-05-03T01:34:22.670Z,6.00
2018-05-03T01:36:50.159Z,5.97
2018-05-03T01:39:18.734Z,6.50
2018-05-03T01:41:46.619Z,5.90
2018-05-03T01:44:14.868Z,5.82
2018-05-03T01:46:42.639Z,6.00
2018-05-03T01:49:10.107Z,6.43
2018-05-03T01:51:37.564Z,5.50
2018-05-03T01:54:06.147Z,5.80
2018-05-03T01:56:33.612Z,6.07
2018-05-03T01:59:01.840Z,6.28
2018-05-03T02:01:29.618Z,5.78
2018-05-03T02:03:57.477Z,5.87
2018-05-03T02:06:24.938Z,5.93
2018-05-03T02:08:52.671Z,6.40
2018-05-03T02:11:20.134Z,6.70
2018-05-03T02:13:48.022Z,6.40
2018-05-03T02:16:15.509Z,6.35
2018-05-03T02:18:43.734Z,5.90
2018-05-03T02:21:11.463Z,6.78
2018-05-03T02:23:39.422Z,6.07
2018-05-03T02:26:07.315Z,5.85
2018-05-03T02:28:34.809Z,6.47
2018-05-03T02:31:02.316Z,6.28
2018-05-03T02:33:30.009Z,6.62
2018-05-03T02:35:57.593Z,7.00
2018-05-03T02:38:26.251Z,5.87
2018-05-03T02:40:53.776Z,7.30
2018-05-03T02:43:21.645Z,5.80
2018-05-03T02:45:50.336Z,5.10
2018-05-03T02:48:17.805Z,5.15
2018-05-03T02:50:45.282Z,4.57
2018-05-03T02:53:13.086Z,4.68
2018-05-03T02:55:40.545Z,5.10
2018-05-03T02:58:20.670Z,4.85
2018-05-03T03:01:05.611Z,4.60
2018-05-03T03:03:51.228Z,4.85
2018-05-03T03:06:36.238Z,5.07
2018-05-03T03:09:22.523Z,4.15
2018-05-03T03:12:07.958Z,4.43
2018-05-03T03:14:53.870Z,4.53
2018-05-03T03:17:38.866Z,4.60
2018-05-03T03:34:01.171Z,4.40
2018-05-03T03:50:01.699Z,4.22
2018-05-03T03:52:29.570Z,6.05
2018-05-03T03:54:57.799Z,6.00
2018-05-03T03:57:25.613Z,6.57
2018-05-03T03:59:53.089Z,6.00
2018-05-03T04:02:20.567Z,6.05
2018-05-03T04:04:48.307Z,5.60
2018-05-03T04:07:15.810Z,6.28
2018-05-03T04:09:43.385Z,6.10
2018-05-03T04:12:11.988Z,6.28
2018-05-03T04:14:40.283Z,5.40
2018-05-03T04:17:07.763Z,6.00
2018-05-03T04:19:47.297Z,5.70
2018-05-03T04:22:26.792Z,5.45
2018-05-03T04:25:07.007Z,5.57
2018-05-03T04:27:34.477Z,6.05
2018-05-03T04:30:02.055Z,5.93
2018-05-03T04:32:30.632Z,6.35
2018-05-03T04:34:58.141Z,6.65
2018-05-03T04:37:25.606Z,5.95
2018-05-03T04:39:53.445Z,5.80
2018-05-03T04:42:21.003Z,6.15
2018-05-03T04:44:48.510Z,5.78
2018-05-03T04:47:16.593Z,6.43
2018-05-03T04:49:44.086Z,5.70
2018-05-03T04:52:12.168Z,6.15
2018-05-03T04:54:40.824Z,5.53
2018-05-03T04:57:09.075Z,6.03
2018-05-03T04:59:36.618Z,5.90
2018-05-03T05:02:04.117Z,6.20
2018-05-03T05:04:32.401Z,5.15
2018-05-03T05:07:00.635Z,5.60
2018-05-03T05:09:28.429Z,6.22
2018-05-03T05:11:56.658Z,5.95
2018-05-03T05:14:24.166Z,5.00
2018-05-03T05:16:52.951Z,5.40
2018-05-03T05:19:21.219Z,4.72
2018-05-03T05:21:48.697Z,4.93
2018-05-03T05:24:16.711Z,4.82
2018-05-03T05:26:44.132Z,4.18
2018-05-03T05:29:11.609Z,4.95
2018-05-03T05:31:39.117Z,4.75
2018-05-03T05:34:07.347Z,5.47
2018-05-03T05:36:34.858Z,4.47
2018-05-03T05:39:03.254Z,4.75
2018-05-03T05:41:31.394Z,4.43
2018-05-03T05:43:58.888Z,4.85
2018-05-03T05:46:26.733Z,4.62
2018-05-03T05:48:54.982Z,5.10
2018-05-03T05:51:22.520Z,4.55
2018-05-03T05:53:50.328Z,5.22
2018-05-03T05:56:18.563Z,4.95
2018-05-03T05:58:46.150Z,4.70
2018-05-03T06:01:13.998Z,4.85
2018-05-03T06:03:41.482Z,5.07
2018-05-03T06:06:09.023Z,4.60
2018-05-03T06:08:36.837Z,4.15
2018-05-03T06:11:04.314Z,4.53
2018-05-03T06:13:31.844Z,4.47
2018-05-03T06:15:59.603Z,3.90
2018-05-03T06:18:27.063Z,4.22
2018-05-03T06:20:54.563Z,3.20
2018-05-03T06:23:22.361Z,3.25
2018-05-03T06:25:50.694Z,3.75
2018-05-03T06:28:18.117Z,3.10
2018-05-03T06:30:45.863Z,4.15
2018-05-03T06:33:14.109Z,3.40
2018-05-03T06:35:41.600Z,2.57
2018-05-03T06:38:10.233Z,3.40
2018-05-03T06:40:37.736Z,3.17
2018-05-03T06:43:05.970Z,3.40
2018-05-03T06:45:33.847Z,3.30
2018-05-03T06:48:01.311Z,2.90
2018-05-03T06:50:28.792Z,2.90
2018-05-03T06:52:57.039Z,2.50
2018-05-03T06:55:24.513Z,2.63
2018-05-03T06:57:52.068Z,3.37
2018-05-03T07:00:19.598Z,2.90
2018-05-03T07:02:47.074Z,2.97
2018-05-03T07:05:14.629Z,3.53
2018-05-03T07:07:42.426Z,3.20
2018-05-03T07:10:09.949Z,2.83
2018-05-03T07:12:37.419Z,2.90
2018-05-03T07:15:04.893Z,3.00
2018-05-03T07:17:33.134Z,2.80
2018-05-03T07:20:00.651Z,3.50
2018-05-03T07:22:28.137Z,3.03
2018-05-03T07:24:55.633Z,3.00
2018-05-03T07:27:23.887Z,3.10
2018-05-03T07:29:51.370Z,2.80
2018-05-03T07:32:18.873Z,3.00
2018-05-03T07:34:46.487Z,2.77
2018-05-03T07:37:14.729Z,2.57
2018-05-03T07:39:42.214Z,3.20
2018-05-03T07:42:09.735Z,2.77
2018-05-03T07:44:37.250Z,3.17
2018-05-03T07:47:05.511Z,2.70
2018-05-03T07:49:33.132Z,2.67
2018-05-03T07:52:00.610Z,2.33
2018-05-03T07:54:28.088Z,2.40
2018-05-03T07:56:56.505Z,3.40
2018-05-03T07:59:24.347Z,2.43
2018-05-03T08:01:52.583Z,2.30
2018-05-03T08:04:20.076Z,2.17
2018-05-03T08:06:48.831Z,3.20
2018-05-03T08:09:16.597Z,2.37
2018-05-03T08:11:44.087Z,2.50
2018-05-03T08:14:12.325Z,2.40
2018-05-03T08:16:39.821Z,2.40
2018-05-03T08:19:07.354Z,2.60
2018-05-03T08:21:34.885Z,1.90
2018-05-03T08:24:02.407Z,1.97
2018-05-03T08:26:29.964Z,2.00
2018-05-03T08:28:57.476Z,2.30
2018-05-03T08:31:24.977Z,2.27
2018-05-03T08:33:52.869Z,2.43
2018-05-03T08:36:20.369Z,2.13
2018-05-03T08:38:47.834Z,2.77
2018-05-03T08:41:16.112Z,2.10
2018-05-03T08:43:44.366Z,2.77
2018-05-03T08:46:11.912Z,2.40
2018-05-03T08:48:39.450Z,2.60
2018-05-03T08:51:06.957Z,2.27
2018-05-03T08:53:35.203Z,2.00
2018-05-03T08:56:02.686Z,2.17
2018-05-03T08:58:30.168Z,1.80
2018-05-03T09:00:58.409Z,1.90
2018-05-03T09:03:26.673Z,2.13
2018-05-03T09:05:54.472Z,2.33
2018-05-03T09:08:21.965Z,2.43
2018-05-03T09:10:49.474Z,2.27
2018-05-03T09:13:17.342Z,2.40
2018-05-03T09:15:44.898Z,2.50
2018-05-03T09:18:12.403Z,2.00
2018-05-03T09:20:40.252Z,2.00
2018-05-03T09:23:07.712Z,1.87
2018-05-03T09:25:35.193Z,3.10
2018-05-03T09:28:02.995Z,4.47
2018-05-03T09:30:30.505Z,2.53
2018-05-03T09:32:57.986Z,3.03
2018-05-03T09:35:25.789Z,2.40
2018-05-03T09:37:54.027Z,1.97
2018-05-03T09:40:21.526Z,1.97
2018-05-03T09:42:49.394Z,2.80
2018-05-03T09:45:17.633Z,2.63
2018-05-03T09:47:45.117Z,2.70
2018-05-03T09:50:12.602Z,2.60
2018-05-03T09:52:40.142Z,2.07
2018-05-03T09:55:07.621Z,3.10
2018-05-03T09:57:35.378Z,2.10
2018-05-03T10:00:02.918Z,1.90
2018-05-03T10:02:31.467Z,1.90
2018-05-03T10:04:59.297Z,1.60
2018-05-03T10:07:26.802Z,1.87
2018-05-03T10:09:54.297Z,1.90
2018-05-03T10:12:21.806Z,1.60
2018-05-03T10:14:50.082Z,1.60
2018-05-03T10:17:17.866Z,1.47
2018-05-03T10:19:45.633Z,1.53
2018-05-03T10:22:13.955Z,1.80
2018-05-03T10:24:41.447Z,1.80
2018-05-03T10:27:08.943Z,1.57
2018-05-03T10:29:37.220Z,1.47
2018-05-03T10:32:04.706Z,1.30
2018-05-03T10:34:32.204Z,1.20
2018-05-03T10:36:59.691Z,1.40
2018-05-03T10:39:27.970Z,1.30
2018-05-03T10:41:55.472Z,1.57
2018-05-03T10:44:22.966Z,1.50
2018-05-03T10:46:50.472Z,1.70
2018-05-03T10:49:17.962Z,1.60
2018-05-03T10:51:45.441Z,1.50
2018-05-03T10:54:13.739Z,1.97
2018-05-03T10:56:41.982Z,2.37
2018-05-03T10:59:09.473Z,1.53
2018-05-03T11:01:36.946Z,1.73
2018-05-03T11:04:04.438Z,2.20
2018-05-03T11:06:31.938Z,3.07
2018-05-03T11:08:59.522Z,2.40
2018-05-03T11:11:26.994Z,2.00
2018-05-03T11:13:54.466Z,2.17
2018-05-03T11:16:21.943Z,2.43
2018-05-03T11:18:50.197Z,2.17
2018-05-03T11:21:17.678Z,1.60
2018-05-03T11:23:45.161Z,2.00
2018-05-03T11:26:12.651Z,2.30
2018-05-03T11:28:40.125Z,1.63
2018-05-03T11:31:07.639Z,2.60
2018-05-03T11:33:35.122Z,1.73
2018-05-03T11:36:02.613Z,1.90
2018-05-03T11:38:30.108Z,2.07
2018-05-03T11:40:57.599Z,2.30
2018-05-03T11:43:25.071Z,2.20
2018-05-03T11:45:52.550Z,1.30
2018-05-03T11:48:20.049Z,1.30
2018-05-03T11:50:47.530Z,1.50
2018-05-03T11:53:15.070Z,1.63
2018-05-03T11:55:42.550Z,2.40
2018-05-03T11:58:10.012Z,1.10
2018-05-03T12:00:37.511Z,1.30
2018-05-03T12:03:05.015Z,1.00
2018-05-03T12:05:32.510Z,3.60
2018-05-03T12:08:00.739Z,5.10
2018-05-03T12:10:28.243Z,0.80
2018-05-03T12:12:55.716Z,1.13
2018-05-03T12:15:23.969Z,1.50
2018-05-03T12:17:52.299Z,1.23
2018-05-03T12:20:19.790Z,1.47
2018-05-03T12:22:47.270Z,1.30
2018-05-03T12:25:15.519Z,1.40
2018-05-03T12:27:42.994Z,1.67
2018-05-03T12:30:11.272Z,1.60
2018-05-03T12:32:40.520Z,1.50
2018-05-03T12:35:07.986Z,1.40
2018-05-03T12:37:35.457Z,1.83
2018-05-03T12:40:03.015Z,1.30
2018-05-03T12:42:30.552Z,1.40
2018-05-03T12:44:58.020Z,1.03
2018-05-03T12:47:25.556Z,1.50
2018-05-03T12:49:53.094Z,1.03
2018-05-03T12:52:21.336Z,1.40
2018-05-03T12:54:49.237Z,1.20
2018-05-03T12:57:16.728Z,1.33
2018-05-03T12:59:44.191Z,1.20
2018-05-03T13:02:11.719Z,1.30
2018-05-03T13:04:39.227Z,1.50
2018-05-03T13:07:06.686Z,1.57
2018-05-03T13:09:34.551Z,1.20
2018-05-03T13:12:02.058Z,1.73
2018-05-03T13:14:29.535Z,1.30
2018-05-03T13:16:57.346Z,1.17
2018-05-03T13:19:24.834Z,1.00
2018-05-03T13:21:52.329Z,1.13
2018-05-03T13:24:19.863Z,1.43
2018-05-03T13:26:47.575Z,1.20
2018-05-03T13:29:15.867Z,1.10
2018-05-03T13:31:44.131Z,0.93
2018-05-03T13:34:11.605Z,1.00
2018-05-03T13:36:39.118Z,1.40
2018-05-03T13:39:06.600Z,1.10
2018-05-03T13:41:34.076Z,1.27
2018-05-03T13:44:02.326Z,1.13
2018-05-03T13:46:30.138Z,1.00
2018-05-03T13:48:57.607Z,1.40
2018-05-03T13:51:25.108Z,0.97
2018-05-03T13:53:53.394Z,1.10
2018-05-03T13:56:20.871Z,1.23
2018-05-03T13:58:48.390Z,1.17
2018-05-03T14:01:15.947Z,1.50
2018-05-03T14:03:43.524Z,1.20
2018-05-03T14:06:11.003Z,1.00
2018-05-03T14:08:40.005Z,1.20
2018-05-03T14:11:07.491Z,1.30
2018-05-03T14:13:35.077Z,1.07
2018-05-03T14:16:02.560Z,1.40
2018-05-03T14:18:30.802Z,1.17
2018-05-03T14:20:58.381Z,0.90
2018-05-03T14:23:26.551Z,1.10
2018-05-03T14:25:54.035Z,0.80
2018-05-03T14:28:22.284Z,1.40
2018-05-03T14:30:49.782Z,0.83
2018-05-03T14:33:17.257Z,1.03
2018-05-03T14:35:45.090Z,1.10
2018-05-03T14:38:12.616Z,1.23
2018-05-03T14:40:40.114Z,1.03
2018-05-03T14:43:07.600Z,0.90
2018-05-03T14:45:35.112Z,1.33
2018-05-03T14:48:03.402Z,0.80
2018-05-03T14:50:30.902Z,1.00
2018-05-03T14:52:59.311Z,1.40
2018-05-03T14:55:26.780Z,1.13
2018-05-03T14:57:55.052Z,1.20
2018-05-03T15:00:22.551Z,1.10
2018-05-03T15:02:50.026Z,0.90
2018-05-03T15:05:17.544Z,1.40
2018-05-03T15:07:45.060Z,1.20
2018-05-03T15:10:12.643Z,0.97
2018-05-03T15:12:40.250Z,0.97
2018-05-03T15:15:08.504Z,1.30
2018-05-03T15:17:35.997Z,1.57
2018-05-03T15:20:03.492Z,1.10
2018-05-03T15:22:30.977Z,1.20
2018-05-03T15:24:58.479Z,1.10
2018-05-03T15:27:25.965Z,1.10
2018-05-03T15:29:54.232Z,1.40
2018-05-03T15:32:22.480Z,1.27
2018-05-03T15:34:50.033Z,1.30
2018-05-03T15:37:17.526Z,1.10
2018-05-03T15:39:45.790Z,1.30
2018-05-03T15:42:13.288Z,1.10
2018-05-03T15:44:40.887Z,1.23
2018-05-03T15:47:09.173Z,1.30
2018-05-03T15:49:36.987Z,1.23
2018-05-03T15:52:04.495Z,1.10
2018-05-03T15:54:32.002Z,1.10
2018-05-03T15:56:59.853Z,1.40
2018-05-03T15:59:28.087Z,1.03
2018-05-03T16:01:55.575Z,1.13
2018-05-03T16:04:23.183Z,1.27
2018-05-03T16:06:50.659Z,1.17
2018-05-03T16:09:18.171Z,1.00
2018-05-03T16:11:46.033Z,1.40
2018-05-03T16:14:13.558Z,1.37
2018-05-03T16:16:41.015Z,1.45
2018-05-03T16:19:08.794Z,1.23
2018-05-03T16:21:37.040Z,1.80
2018-05-03T16:24:04.538Z,1.50
2018-05-03T16:26:32.786Z,0.97
2018-05-03T16:29:00.266Z,1.23
2018-05-03T16:31:28.506Z,1.37
2018-05-03T16:33:56.309Z,1.65
2018-05-03T16:36:24.551Z,1.43
2018-05-03T16:38:52.034Z,1.40
2018-05-03T16:41:20.617Z,1.30
2018-05-03T16:43:48.853Z,1.00
2018-05-03T16:46:16.733Z,1.50
2018-05-03T16:48:44.908Z,1.20
2018-05-03T16:51:12.420Z,1.60
2018-05-03T16:53:39.923Z,1.27
2018-05-03T16:56:07.707Z,1.40
2018-05-03T16:58:35.946Z,2.45
2018-05-03T17:01:03.437Z,1.23
2018-05-03T17:03:31.744Z,1.48
2018-05-03T17:05:59.623Z,1.45
2018-05-03T17:08:28.234Z,1.42
2018-05-03T17:10:55.744Z,1.35
2018-05-03T17:13:23.238Z,1.27
2018-05-03T17:15:51.121Z,1.55
2018-05-03T17:18:19.646Z,1.45
2018-05-03T17:20:48.427Z,1.65
2018-05-03T17:23:16.666Z,1.50
2018-05-03T17:25:44.847Z,1.10
2018-05-03T17:28:12.327Z,1.50
2018-05-03T17:30:40.594Z,1.20
2018-05-03T17:33:08.811Z,1.10
2018-05-03T17:35:37.068Z,1.15
2018-05-03T17:38:05.005Z,1.05
2018-05-03T17:40:32.522Z,1.58
2018-05-03T17:43:00.450Z,0.90
2018-05-03T17:45:28.699Z,1.50
2018-05-03T17:47:56.494Z,1.10
2018-05-03T17:50:24.759Z,1.02
2018-05-03T17:52:53.002Z,1.10
2018-05-03T17:55:20.918Z,1.10
2018-05-03T17:57:48.791Z,1.27
2018-05-03T18:00:16.284Z,1.15
2018-05-03T18:02:44.146Z,1.25
2018-05-03T18:05:11.692Z,1.77
2018-05-03T18:07:39.990Z,1.40
2018-05-03T18:10:07.786Z,1.37
2018-05-03T18:12:35.270Z,1.45
2018-05-03T18:15:02.770Z,1.40
2018-05-03T18:17:30.639Z,1.75
2018-05-03T18:19:58.507Z,1.52
2018-05-03T18:22:27.511Z,1.30
2018-05-03T18:24:55.416Z,2.20
2018-05-03T18:27:22.898Z,1.60
2018-05-03T18:29:50.372Z,1.60
2018-05-03T18:32:18.191Z,1.48
2018-05-03T18:34:46.057Z,1.52
2018-05-03T18:37:14.009Z,1.40
2018-05-03T18:39:41.524Z,1.48
2018-05-03T18:42:09.433Z,1.30
2018-05-03T18:44:37.429Z,1.65
2018-05-03T18:47:06.139Z,1.30
2018-05-03T18:49:33.722Z,1.70
2018-05-03T18:52:01.618Z,2.00
2018-05-03T18:54:29.448Z,1.85
2018-05-03T18:56:56.930Z,1.70
2018-05-03T18:59:24.399Z,1.60
2018-05-03T19:01:52.278Z,1.55
2018-05-03T19:04:19.891Z,1.30
2018-05-03T19:06:47.358Z,1.70
2018-05-03T19:09:15.273Z,1.60
2018-05-03T19:11:42.834Z,1.70
2018-05-03T19:14:10.996Z,1.77
2018-05-03T19:16:39.342Z,1.90
2018-05-03T19:19:06.785Z,1.50
2018-05-03T19:21:34.314Z,1.65
2018-05-03T19:24:02.056Z,1.65
2018-05-03T19:26:29.556Z,2.00
2018-05-03T19:28:57.784Z,2.05
2018-05-03T19:31:25.282Z,2.12
2018-05-03T19:33:53.188Z,1.60
2018-05-03T19:36:20.650Z,2.15
2018-05-03T19:38:49.238Z,1.87
2018-05-03T19:41:17.475Z,1.50
2018-05-03T19:43:44.965Z,1.83
2018-05-03T19:46:12.858Z,1.80
2018-05-03T19:48:40.326Z,1.50
2018-05-03T19:51:07.846Z,1.52
2018-05-03T19:53:36.418Z,1.83
2018-05-03T19:56:03.897Z,1.67
2018-05-03T19:58:31.798Z,1.67
2018-05-03T20:00:59.619Z,2.00
2018-05-03T20:03:27.966Z,2.20
2018-05-03T20:05:55.435Z,2.00
2018-05-03T20:08:22.963Z,1.62
2018-05-03T20:10:50.533Z,1.60
2018-05-03T20:13:19.151Z,1.73
2018-05-03T20:15:47.471Z,2.15
2018-05-03T20:18:16.112Z,1.92
2018-05-03T20:20:43.752Z,1.90
2018-05-03T20:23:12.094Z,2.62
2018-05-03T20:25:39.606Z,3.33
2018-05-03T20:28:07.955Z,2.50
2018-05-03T20:30:35.485Z,2.20
2018-05-03T20:33:02.976Z,2.03
2018-05-03T20:35:30.875Z,1.75
2018-05-03T20:37:58.788Z,2.30
2018-05-03T20:40:26.648Z,2.20
2018-05-03T20:42:54.147Z,2.47
2018-05-03T20:45:22.041Z,2.25
2018-05-03T20:47:49.526Z,2.72
2018-05-03T20:50:17.396Z,2.28
2018-05-03T20:52:45.709Z,2.70
2018-05-03T20:55:13.183Z,2.40
2018-05-03T20:57:42.844Z,2.83
2018-05-03T21:00:10.323Z,2.65
2018-05-03T21:02:39.317Z,2.45
2018-05-03T21:05:06.840Z,2.55
2018-05-03T21:07:34.722Z,2.72
2018-05-03T21:10:02.226Z,2.83
2018-05-03T21:12:30.256Z,3.10
2018-05-03T21:14:57.797Z,3.05
2018-05-03T21:17:25.327Z,2.90
2018-05-03T21:19:53.225Z,3.20
2018-05-03T21:22:20.705Z,3.80
2018-05-03T21:24:48.177Z,3.40
2018-05-03T21:27:16.084Z,4.07
2018-05-03T21:29:43.933Z,3.30
2018-05-03T21:32:12.158Z,3.00
2018-05-03T21:34:39.685Z,3.15
2018-05-03T21:37:08.334Z,2.90
2018-05-03T21:39:35.765Z,3.50
2018-05-03T21:42:03.218Z,2.92
2018-05-03T21:44:31.006Z,3.90
2018-05-03T21:46:58.858Z,3.22
2018-05-03T21:49:26.358Z,3.03
2018-05-03T21:51:54.210Z,3.65
2018-05-03T21:54:22.098Z,4.07
2018-05-03T21:56:49.972Z,3.78
2018-05-03T21:59:18.008Z,3.60
2018-05-03T22:01:46.237Z,4.60
2018-05-03T22:04:14.154Z,3.95
2018-05-03T22:06:42.037Z,3.97
2018-05-03T22:09:09.897Z,3.83
2018-05-03T22:11:38.139Z,3.30
2018-05-03T22:14:05.942Z,4.10
2018-05-03T22:16:33.426Z,3.65
2018-05-03T22:19:00.879Z,3.83
2018-05-03T22:21:28.744Z,3.40
2018-05-03T22:23:56.629Z,3.90
2018-05-03T22:26:24.906Z,4.05
2018-05-03T22:28:52.752Z,3.83
2018-05-03T22:31:20.199Z,4.45
2018-05-03T22:33:47.678Z,4.90
2018-05-03T22:36:15.157Z,4.22
2018-05-03T22:38:43.029Z,4.68
2018-05-03T22:41:10.548Z,4.60
2018-05-03T22:43:39.194Z,4.60
2018-05-03T22:46:07.434Z,5.68
2018-05-03T22:48:35.308Z,4.87
2018-05-03T22:51:03.096Z,4.97
2018-05-03T22:53:31.329Z,5.45
2018-05-03T22:55:58.826Z,5.40
2018-05-03T22:58:27.330Z,5.20
2018-05-03T23:00:54.810Z,6.62
2018-05-03T23:03:22.681Z,5.07
2018-05-03T23:05:50.413Z,5.00
2018-05-03T23:08:18.297Z,6.80
2018-05-03T23:10:45.767Z,5.80
2018-05-03T23:13:13.589Z,4.65
2018-05-03T23:15:41.822Z,5.55
2018-05-03T23:18:09.681Z,5.45
2018-05-03T23:20:37.442Z,6.00
2018-05-03T23:23:04.904Z,5.78
2018-05-03T23:25:32.384Z,5.95
2018-05-03T23:28:00.277Z,5.10
2018-05-03T23:30:28.570Z,6.00
2018-05-03T23:32:55.978Z,5.70
2018-05-03T23:35:23.806Z,5.22
2018-05-03T23:37:51.267Z,6.10
2018-05-03T23:40:19.228Z,6.03
2018-05-03T23:42:47.559Z,6.43
2018-05-03T23:45:15.446Z,6.00
2018-05-03T23:47:43.303Z,5.62
2018-05-03T23:50:11.214Z,6.05
2018-05-03T23:52:38.766Z,6.50
2018-05-03T23:55:06.232Z,6.10
2018-05-03T23:57:33.738Z,6.32
